Time;durP1;ratioP1;P1;durP2;ratioP2;P2;SDS_P1;SDS_P2;PMS_P1;PMS_P2;Temp;Humidity;BMP_temperature;BMP_pressure;BME280_temperature;BME280_humidity;BME280_pressure;Samples;Min_cycle;Max_cycle;Signal;HPM_P1;HPM_P2
2021/03/14 00:01:11;;;;;;;;;;;16.70;56.40;;;;;;4897128;29;20392;-81
2021/03/14 00:03:37;;;;;;;;;;;16.70;56.40;;;;;;4913517;29;19931;-82
2021/03/14 00:06:04;;;;;;;;;;;16.70;56.40;;;;;;4909411;29;19935;-81
2021/03/14 00:08:30;;;;;;;;;;;16.70;56.40;;;;;;4913425;29;19938;-81
2021/03/14 00:10:58;;;;;;;;;;;16.70;56.30;;;;;;4907449;29;19930;-82
2021/03/14 00:13:27;;;;;;;;;;;16.70;56.30;;;;;;4914093;29;20300;-81
2021/03/14 00:15:54;;;;;;;;;;;16.70;56.30;;;;;;4909981;29;19935;-82
2021/03/14 00:18:21;;;;;;;;;;;16.70;56.30;;;;;;4911507;29;19935;-82
2021/03/14 00:20:47;;;;;;;;;;;16.70;56.20;;;;;;4905798;29;19931;-81
2021/03/14 00:23:13;;;;;;;;;;;16.70;56.30;;;;;;4898448;29;19927;-81
2021/03/14 00:25:40;;;;;;;;;;;16.70;56.20;;;;;;4900750;29;19962;-81
2021/03/14 00:28:06;;;;;;;;;;;16.70;56.20;;;;;;4911546;29;19935;-81
2021/03/14 00:30:33;;;;;;;;;;;16.70;56.20;;;;;;4913613;29;19931;-81
2021/03/14 00:32:59;;;;;;;;;;;16.70;56.20;;;;;;4915028;29;20255;-82
2021/03/14 00:35:25;;;;;;;;;;;16.60;56.20;;;;;;4909494;29;20302;-82
2021/03/14 00:37:52;;;;;;;;;;;16.70;56.20;;;;;;4910320;29;19927;-81
2021/03/14 00:40:27;;;;;;;;;;;16.70;56.20;;;;;;4914475;29;20014;-81
2021/03/14 00:42:55;;;;;;;;;;;16.70;56.20;;;;;;4913444;29;19957;-81
2021/03/14 00:45:28;;;;;;;;;;;16.70;56.20;;;;;;4914400;29;19934;-81
2021/03/14 00:47:54;;;;;;;;;;;16.60;56.20;;;;;;4909652;29;19927;-81
2021/03/14 00:50:21;;;;;;;;;;;16.60;56.10;;;;;;4913105;29;19978;-81
2021/03/14 00:52:47;;;;;;;;;;;16.60;56.10;;;;;;4910809;29;20348;-81
2021/03/14 00:55:14;;;;;;;;;;;16.60;56.10;;;;;;4898602;29;19969;-81
2021/03/14 00:57:40;;;;;;;;;;;16.60;56.10;;;;;;4905552;29;19923;-81
2021/03/14 01:00:07;;;;;;;;;;;16.60;56.10;;;;;;4913407;29;19937;-80
2021/03/14 01:02:33;;;;;;;;;;;16.60;56.00;;;;;;4907179;29;20554;-81
2021/03/14 01:05:00;;;;;;;;;;;16.60;56.00;;;;;;4912892;29;19927;-80
2021/03/14 01:07:26;;;;;;;;;;;16.70;56.10;;;;;;4889246;29;20321;-81
2021/03/14 01:09:53;;;;;;;;;;;16.60;56.10;;;;;;4913070;29;20018;-80
2021/03/14 01:12:19;;;;;;;;;;;16.60;56.00;;;;;;4907138;29;19979;-80
2021/03/14 01:14:45;;;;;;;;;;;16.60;56.00;;;;;;4911512;29;19931;-81
2021/03/14 01:17:11;;;;;;;;;;;16.60;56.00;;;;;;4905030;29;19927;-82
2021/03/14 01:19:38;;;;;;;;;;;16.60;56.00;;;;;;4916165;29;19927;-81
2021/03/14 01:22:04;;;;;;;;;;;16.60;56.00;;;;;;4908167;29;19939;-82
2021/03/14 01:24:30;;;;;;;;;;;16.60;56.00;;;;;;4915770;29;19927;-82
2021/03/14 01:26:57;;;;;;;;;;;16.60;56.00;;;;;;4916187;29;19945;-82
2021/03/14 01:29:24;;;;;;;;;;;16.60;55.90;;;;;;4909237;29;19935;-82
2021/03/14 01:31:50;;;;;;;;;;;16.60;56.00;;;;;;4909828;29;20443;-82
2021/03/14 01:34:16;;;;;;;;;;;16.50;55.90;;;;;;4909120;29;20001;-82
2021/03/14 01:36:43;;;;;;;;;;;16.60;55.90;;;;;;4913917;29;19956;-81
2021/03/14 01:39:09;;;;;;;;;;;16.50;55.90;;;;;;4909345;29;20428;-82
2021/03/14 01:41:35;;;;;;;;;;;16.50;55.90;;;;;;4911634;29;19960;-82
2021/03/14 01:44:01;;;;;;;;;;;16.60;56.00;;;;;;4909141;29;19927;-82
2021/03/14 01:46:28;;;;;;;;;;;16.60;55.90;;;;;;4914393;29;20395;-82
2021/03/14 01:49:18;;;;;;;;;;;16.60;55.90;;;;;;4895758;29;20821;-81
2021/03/14 01:51:44;;;;;;;;;;;16.50;55.90;;;;;;4911251;29;19934;-81
2021/03/14 01:54:11;;;;;;;;;;;16.50;55.90;;;;;;4906080;29;20005;-81
2021/03/14 01:56:37;;;;;;;;;;;16.60;55.90;;;;;;4912350;29;19942;-81
2021/03/14 01:59:04;;;;;;;;;;;16.50;56.50;;;;;;4905168;29;19934;-80
2021/03/14 02:01:31;;;;;;;;;;;16.50;55.90;;;;;;4896214;29;19927;-83
2021/03/14 02:03:57;;;;;;;;;;;16.50;55.90;;;;;;4903748;29;19931;-82
2021/03/14 02:06:24;;;;;;;;;;;16.50;55.90;;;;;;4911119;29;19943;-81
2021/03/14 02:08:50;;;;;;;;;;;16.50;55.80;;;;;;4888906;29;19931;-82
2021/03/14 02:11:16;;;;;;;;;;;16.60;55.90;;;;;;4901687;29;19933;-81
2021/03/14 02:13:45;;;;;;;;;;;16.50;55.90;;;;;;4908892;29;19938;-81
2021/03/14 02:16:14;;;;;;;;;;;16.50;55.80;;;;;;4906695;29;20468;-81
2021/03/14 02:18:44;;;;;;;;;;;16.50;55.80;;;;;;4907956;29;19928;-81
2021/03/14 02:21:10;;;;;;;;;;;16.50;55.80;;;;;;4905404;29;20331;-81
2021/03/14 02:23:56;;;;;;;;;;;16.50;55.80;;;;;;4910298;29;20010;-81
2021/03/14 02:26:32;;;;;;;;;;;16.50;55.80;;;;;;4907546;29;19927;-81
2021/03/14 02:28:59;;;;;;;;;;;16.50;55.80;;;;;;4905409;29;20434;-82
2021/03/14 02:31:27;;;;;;;;;;;16.50;55.70;;;;;;4908152;29;20295;-82
2021/03/14 02:33:58;;;;;;;;;;;16.50;55.80;;;;;;4912944;29;19927;-81
2021/03/14 02:36:24;;;;;;;;;;;16.50;55.80;;;;;;4907743;29;19959;-82
2021/03/14 02:38:51;;;;;;;;;;;16.50;55.80;;;;;;4911060;29;19962;-81
2021/03/14 02:41:18;;;;;;;;;;;16.50;55.70;;;;;;4907105;29;19927;-83
2021/03/14 02:43:45;;;;;;;;;;;16.50;55.70;;;;;;4911791;29;19927;-83
2021/03/14 02:46:11;;;;;;;;;;;16.50;55.70;;;;;;4907254;29;19927;-83
2021/03/14 02:48:40;;;;;;;;;;;16.50;55.80;;;;;;4908896;29;20038;-83
2021/03/14 02:51:06;;;;;;;;;;;16.50;55.80;;;;;;4908362;29;19982;-83
2021/03/14 02:53:32;;;;;;;;;;;16.50;55.80;;;;;;4914142;29;19962;-83
2021/03/14 02:55:59;;;;;;;;;;;16.50;55.80;;;;;;4909820;29;20744;-82
2021/03/14 02:58:25;;;;;;;;;;;16.50;55.70;;;;;;4912405;29;19935;-82
2021/03/14 03:00:52;;;;;;;;;;;16.50;56.40;;;;;;4904695;29;19928;-82
2021/03/14 03:03:22;;;;;;;;;;;16.40;55.70;;;;;;4902294;29;19934;-83
2021/03/14 03:05:50;;;;;;;;;;;16.40;55.70;;;;;;4910801;29;19995;-83
2021/03/14 03:08:18;;;;;;;;;;;16.40;55.70;;;;;;4906994;29;19934;-82
2021/03/14 03:10:46;;;;;;;;;;;16.40;55.60;;;;;;4909033;29;19927;-83
2021/03/14 03:13:13;;;;;;;;;;;16.50;55.70;;;;;;4890448;29;19927;-83
2021/03/14 03:15:40;;;;;;;;;;;16.50;55.70;;;;;;4910871;29;19934;-83
2021/03/14 03:18:07;;;;;;;;;;;16.40;55.70;;;;;;4911798;29;19961;-82
2021/03/14 03:20:34;;;;;;;;;;;16.40;55.70;;;;;;4914697;29;19915;-83
2021/03/14 03:23:00;;;;;;;;;;;16.50;55.80;;;;;;4909088;29;20535;-82
2021/03/14 03:25:27;;;;;;;;;;;16.40;55.70;;;;;;4916175;29;19961;-80
2021/03/14 03:27:53;;;;;;;;;;;16.40;55.70;;;;;;4916460;29;19927;-81
2021/03/14 03:30:23;;;;;;;;;;;16.40;55.60;;;;;;4918244;29;19935;-80
2021/03/14 03:32:49;;;;;;;;;;;16.40;55.60;;;;;;4913959;29;19938;-81
2021/03/14 03:35:17;;;;;;;;;;;16.40;55.60;;;;;;4918771;29;19927;-81
2021/03/14 03:37:44;;;;;;;;;;;16.40;55.70;;;;;;4912055;29;19931;-81
2021/03/14 03:40:12;;;;;;;;;;;16.40;55.60;;;;;;4916019;29;19927;-80
2021/03/14 03:42:48;;;;;;;;;;;16.40;55.60;;;;;;4898783;29;19951;-80
2021/03/14 03:45:15;;;;;;;;;;;16.40;55.60;;;;;;4915158;29;19916;-80
2021/03/14 03:47:43;;;;;;;;;;;16.40;55.70;;;;;;4913035;29;20432;-80
2021/03/14 03:50:11;;;;;;;;;;;16.40;55.60;;;;;;4914151;29;19947;-80
2021/03/14 03:52:38;;;;;;;;;;;16.40;55.60;;;;;;4916187;29;19927;-81
2021/03/14 03:55:06;;;;;;;;;;;16.40;55.60;;;;;;4910879;29;20396;-80
2021/03/14 03:57:33;;;;;;;;;;;16.40;55.60;;;;;;4915723;29;19931;-80
2021/03/14 04:00:00;;;;;;;;;;;16.40;55.50;;;;;;4909932;29;19935;-80
2021/03/14 04:02:27;;;;;;;;;;;16.40;55.50;;;;;;4917549;29;20014;-81
2021/03/14 04:05:03;;;;;;;;;;;16.40;55.60;;;;;;4912150;29;21960;-80
2021/03/14 04:07:29;;;;;;;;;;;16.40;55.50;;;;;;4917632;29;20207;-80
2021/03/14 04:09:55;;;;;;;;;;;16.40;55.50;;;;;;4912820;29;19986;-79
2021/03/14 04:12:22;;;;;;;;;;;16.40;55.50;;;;;;4916599;29;20417;-80
2021/03/14 04:14:48;;;;;;;;;;;16.40;55.50;;;;;;4911614;29;20476;-81
2021/03/14 04:17:17;;;;;;;;;;;16.40;55.50;;;;;;4913600;29;19927;-82
2021/03/14 04:19:44;;;;;;;;;;;16.40;55.50;;;;;;4912315;29;19946;-82
2021/03/14 04:22:10;;;;;;;;;;;16.30;55.40;;;;;;4917163;29;19927;-81
2021/03/14 04:24:37;;;;;;;;;;;16.40;55.50;;;;;;4912911;29;20057;-81
2021/03/14 04:27:05;;;;;;;;;;;16.30;55.50;;;;;;4918295;29;20292;-81
2021/03/14 04:29:32;;;;;;;;;;;16.40;55.50;;;;;;4910460;29;21367;-81
2021/03/14 04:31:58;;;;;;;;;;;16.30;56.10;;;;;;4916601;29;19910;-81
2021/03/14 04:34:26;;;;;;;;;;;16.40;55.50;;;;;;4912579;29;19974;-81
2021/03/14 04:36:52;;;;;;;;;;;16.30;55.50;;;;;;4911687;29;19991;-81
2021/03/14 04:39:19;;;;;;;;;;;16.40;55.50;;;;;;4913144;29;19931;-81
2021/03/14 04:41:46;;;;;;;;;;;16.30;55.40;;;;;;4910190;29;19927;-81
2021/03/14 04:44:12;;;;;;;;;;;16.30;56.00;;;;;;4911779;29;19970;-81
2021/03/14 04:46:38;;;;;;;;;;;16.30;55.40;;;;;;4907532;29;19955;-81
2021/03/14 04:49:05;;;;;;;;;;;16.30;55.40;;;;;;4914030;29;19934;-81
2021/03/14 04:51:34;;;;;;;;;;;16.30;55.40;;;;;;4908274;29;19931;-81
2021/03/14 04:54:01;;;;;;;;;;;16.30;55.40;;;;;;4913612;29;19927;-81
2021/03/14 04:56:28;;;;;;;;;;;16.30;55.30;;;;;;4908595;29;20422;-80
2021/03/14 04:58:55;;;;;;;;;;;16.30;55.40;;;;;;4911762;29;19935;-81
2021/03/14 05:01:22;;;;;;;;;;;16.30;55.40;;;;;;4907447;29;20024;-81
2021/03/14 05:03:51;;;;;;;;;;;16.30;55.40;;;;;;4909884;29;19978;-81
2021/03/14 05:06:18;;;;;;;;;;;16.30;55.30;;;;;;4908877;29;19934;-81
2021/03/14 05:08:45;;;;;;;;;;;16.30;55.30;;;;;;4912599;29;20270;-82
2021/03/14 05:11:15;;;;;;;;;;;16.30;55.40;;;;;;4909383;29;19931;-81
2021/03/14 05:13:43;;;;;;;;;;;16.30;55.30;;;;;;4912668;29;19938;-80
2021/03/14 05:16:09;;;;;;;;;;;16.30;55.30;;;;;;4904184;29;19915;-81
2021/03/14 05:18:37;;;;;;;;;;;16.30;55.30;;;;;;4914731;29;19927;-80
2021/03/14 05:21:04;;;;;;;;;;;16.30;55.30;;;;;;4911298;29;19932;-80
2021/03/14 05:23:32;;;;;;;;;;;16.30;55.30;;;;;;4906089;29;19935;-81
2021/03/14 05:25:59;;;;;;;;;;;16.30;55.30;;;;;;4913425;29;19938;-81
2021/03/14 05:28:25;;;;;;;;;;;16.30;55.30;;;;;;4906206;29;19928;-81
2021/03/14 05:30:52;;;;;;;;;;;16.30;55.30;;;;;;4914688;29;19934;-81
2021/03/14 05:33:18;;;;;;;;;;;16.30;55.20;;;;;;4907481;29;19935;-80
2021/03/14 05:35:44;;;;;;;;;;;16.30;55.30;;;;;;4895916;29;19937;-80
2021/03/14 05:38:11;;;;;;;;;;;16.20;55.20;;;;;;4906529;29;19930;-80
2021/03/14 05:40:37;;;;;;;;;;;16.20;55.20;;;;;;4913480;29;19969;-80
2021/03/14 05:43:04;;;;;;;;;;;16.30;55.20;;;;;;4906853;29;20398;-80
2021/03/14 05:45:30;;;;;;;;;;;16.30;55.20;;;;;;4912519;29;19927;-81
2021/03/14 05:47:59;;;;;;;;;;;16.20;55.20;;;;;;4908742;29;19915;-81
2021/03/14 05:50:27;;;;;;;;;;;16.20;55.20;;;;;;4909133;29;19928;-80
2021/03/14 05:52:54;;;;;;;;;;;16.20;55.20;;;;;;4903655;29;21630;-80
2021/03/14 05:55:21;;;;;;;;;;;16.20;55.20;;;;;;4912189;29;19934;-80
2021/03/14 05:57:49;;;;;;;;;;;16.20;55.10;;;;;;4904949;29;19962;-80
2021/03/14 06:00:24;;;;;;;;;;;16.30;55.30;;;;;;4912334;29;20439;-81
2021/03/14 06:02:55;;;;;;;;;;;16.20;55.20;;;;;;4905778;29;20333;-80
2021/03/14 06:05:23;;;;;;;;;;;16.20;55.20;;;;;;4908503;29;19927;-80
2021/03/14 06:07:49;;;;;;;;;;;16.20;55.20;;;;;;4911651;29;20321;-80
2021/03/14 06:10:17;;;;;;;;;;;16.20;55.10;;;;;;4908324;29;19938;-83
2021/03/14 06:12:44;;;;;;;;;;;16.20;55.10;;;;;;4905381;29;19934;-84
2021/03/14 06:15:10;;;;;;;;;;;16.20;55.00;;;;;;4891466;29;20384;-81
2021/03/14 06:17:37;;;;;;;;;;;16.20;55.00;;;;;;4907972;29;19945;-83
2021/03/14 06:20:07;;;;;;;;;;;16.20;55.00;;;;;;4893318;29;19927;-81
2021/03/14 06:22:39;;;;;;;;;;;16.20;55.00;;;;;;4896205;29;20971;-82
2021/03/14 06:25:06;;;;;;;;;;;16.20;55.00;;;;;;4908337;29;19934;-81
2021/03/14 06:27:37;;;;;;;;;;;16.20;55.00;;;;;;4911685;29;20482;-81
2021/03/14 06:30:06;;;;;;;;;;;16.20;54.90;;;;;;4905649;29;19927;-81
2021/03/14 06:32:33;;;;;;;;;;;16.20;54.90;;;;;;4912603;29;19923;-81
2021/03/14 06:35:13;;;;;;;;;;;16.20;54.90;;;;;;4908978;29;20453;-82
2021/03/14 06:37:39;;;;;;;;;;;16.20;54.80;;;;;;4906850;29;19946;-82
2021/03/14 06:40:07;;;;;;;;;;;16.20;54.90;;;;;;4908657;29;19938;-81
2021/03/14 06:42:34;;;;;;;;;;;16.20;54.90;;;;;;4893874;29;20082;-81
2021/03/14 06:45:01;;;;;;;;;;;16.20;54.90;;;;;;4886094;29;19934;-81
2021/03/14 06:47:37;;;;;;;;;;;16.20;54.80;;;;;;4911233;29;19927;-82
2021/03/14 06:50:05;;;;;;;;;;;16.20;54.90;;;;;;4909630;29;20716;-84
2021/03/14 06:52:32;;;;;;;;;;;16.20;55.00;;;;;;4911452;29;21021;-82
2021/03/14 06:54:58;;;;;;;;;;;16.20;55.10;;;;;;4910373;29;19927;-82
2021/03/14 06:57:24;;;;;;;;;;;16.20;55.00;;;;;;4908589;29;19935;-81
2021/03/14 06:59:51;;;;;;;;;;;16.20;55.00;;;;;;4915839;29;19938;-82
2021/03/14 07:02:22;;;;;;;;;;;16.20;54.90;;;;;;4909662;29;19931;-81
2021/03/14 07:04:49;;;;;;;;;;;16.20;54.80;;;;;;4890875;29;19931;-79
2021/03/14 07:07:28;;;;;;;;;;;16.20;54.80;;;;;;4902560;29;19946;-80
2021/03/14 07:09:57;;;;;;;;;;;16.20;54.80;;;;;;4906384;29;19969;-79
2021/03/14 07:12:29;;;;;;;;;;;16.20;54.80;;;;;;4901781;29;20022;-80
2021/03/14 07:14:55;;;;;;;;;;;16.10;54.80;;;;;;4904868;29;20333;-80
2021/03/14 07:17:26;;;;;;;;;;;16.20;54.80;;;;;;4903971;29;20019;-80
2021/03/14 07:19:56;;;;;;;;;;;16.20;54.80;;;;;;4909701;29;19991;-81
2021/03/14 07:22:24;;;;;;;;;;;16.20;54.80;;;;;;4903307;29;19983;-81
2021/03/14 07:24:50;;;;;;;;;;;16.20;54.70;;;;;;4893160;29;19931;-82
2021/03/14 07:27:21;;;;;;;;;;;16.20;54.70;;;;;;4896208;29;20340;-82
2021/03/14 07:29:49;;;;;;;;;;;16.20;54.70;;;;;;4896227;29;20025;-81
2021/03/14 07:32:15;;;;;;;;;;;16.20;54.70;;;;;;4911819;29;19970;-82
2021/03/14 07:34:42;;;;;;;;;;;16.20;54.70;;;;;;4904609;29;19931;-83
2021/03/14 07:37:08;;;;;;;;;;;16.20;54.60;;;;;;4912260;29;19938;-82
2021/03/14 07:39:35;;;;;;;;;;;16.20;54.60;;;;;;4909759;29;19974;-84
2021/03/14 07:42:01;;;;;;;;;;;16.20;55.30;;;;;;4910575;29;19966;-81
2021/03/14 07:44:28;;;;;;;;;;;16.20;54.60;;;;;;4908866;29;20470;-83
2021/03/14 07:46:55;;;;;;;;;;;16.20;54.50;;;;;;4909945;29;19927;-90
2021/03/14 07:49:23;;;;;;;;;;;16.20;54.60;;;;;;4892885;29;19935;-83
2021/03/14 07:51:51;;;;;;;;;;;16.20;54.50;;;;;;4908324;29;20316;-84
2021/03/14 07:54:24;;;;;;;;;;;16.20;54.50;;;;;;4895422;29;19915;-83
2021/03/14 07:56:52;;;;;;;;;;;16.20;54.40;;;;;;4902624;29;20354;-83
2021/03/14 07:59:24;;;;;;;;;;;16.20;54.40;;;;;;4903015;29;19934;-83
2021/03/14 08:01:50;;;;;;;;;;;16.20;54.40;;;;;;4892633;29;19927;-83
2021/03/14 08:04:32;;;;;;;;;;;16.20;54.40;;;;;;4909910;29;19999;-83
2021/03/14 08:06:59;;;;;;;;;;;16.20;54.30;;;;;;4908934;29;19931;-82
2021/03/14 08:09:42;;;;;;;;;;;16.20;54.30;;;;;;4912883;29;20380;-84
2021/03/14 08:12:19;;;;;;;;;;;16.20;54.30;;;;;;4911436;29;19999;-83
2021/03/14 08:14:46;;;;;;;;;;;16.20;54.30;;;;;;4911929;29;20583;-84
2021/03/14 08:17:16;;;;;;;;;;;16.20;54.20;;;;;;4895381;29;19927;-84
2021/03/14 08:19:43;;;;;;;;;;;16.20;54.20;;;;;;4914113;29;19928;-84
2021/03/14 08:22:29;;;;;;;;;;;16.20;54.20;;;;;;4905652;29;19938;-84
2021/03/14 08:25:19;;;;;;;;;;;16.20;54.20;;;;;;4913977;29;20363;-85
2021/03/14 08:27:48;;;;;;;;;;;16.20;54.10;;;;;;4890719;29;21087;-85
2021/03/14 08:30:30;;;;;;;;;;;16.20;54.10;;;;;;4911722;29;19927;-85
2021/03/14 08:33:15;;;;;;;;;;;16.20;54.10;;;;;;4906433;29;19927;-85
2021/03/14 08:35:45;;;;;;;;;;;16.20;54.00;;;;;;4898478;29;21653;-84
2021/03/14 08:38:29;;;;;;;;;;;16.20;54.00;;;;;;4908703;29;19927;-82
2021/03/14 08:41:14;;;;;;;;;;;16.20;54.00;;;;;;4913289;29;20522;-83
2021/03/14 08:43:42;;;;;;;;;;;16.20;54.10;;;;;;4894005;29;20740;-83
2021/03/14 08:46:08;;;;;;;;;;;16.30;54.50;;;;;;4894653;29;19927;-82
2021/03/14 08:48:35;;;;;;;;;;;16.30;54.80;;;;;;4907484;29;19931;-87
2021/03/14 08:51:01;;;;;;;;;;;16.30;54.80;;;;;;4906942;29;20581;-84
2021/03/14 08:53:27;;;;;;;;;;;16.30;54.70;;;;;;4902030;29;20700;-85
2021/03/14 08:55:54;;;;;;;;;;;16.30;54.50;;;;;;4901834;29;19936;-85
2021/03/14 08:58:20;;;;;;;;;;;16.30;54.30;;;;;;4911333;29;19938;-84
2021/03/14 09:01:05;;;;;;;;;;;16.40;54.30;;;;;;4893552;29;20014;-84
2021/03/14 09:03:44;;;;;;;;;;;16.30;54.10;;;;;;4910332;29;19927;-85
2021/03/14 09:06:16;;;;;;;;;;;16.30;54.10;;;;;;4898194;29;20371;-86
2021/03/14 09:08:53;;;;;;;;;;;16.30;54.10;;;;;;4912903;29;19928;-82
2021/03/14 09:11:39;;;;;;;;;;;16.30;54.00;;;;;;4911154;29;19935;-84
2021/03/14 09:14:17;;;;;;;;;;;16.30;54.00;;;;;;4887745;29;19931;-83
2021/03/14 09:16:44;;;;;;;;;;;16.30;54.00;;;;;;4892872;29;20010;-84
2021/03/14 09:19:19;;;;;;;;;;;16.30;54.00;;;;;;4894428;29;19931;-84
2021/03/14 09:21:46;;;;;;;;;;;16.30;54.10;;;;;;4882220;29;20400;-84
2021/03/14 09:24:22;;;;;;;;;;;16.30;54.00;;;;;;4900409;29;20022;-85
2021/03/14 09:26:53;;;;;;;;;;;16.30;54.00;;;;;;4909729;29;19939;-88
2021/03/14 09:29:39;;;;;;;;;;;16.30;54.00;;;;;;4894975;29;19935;-87
2021/03/14 09:32:14;;;;;;;;;;;16.30;54.30;;;;;;4909171;29;20336;-85
2021/03/14 09:34:41;;;;;;;;;;;16.40;54.60;;;;;;4907498;29;19935;-85
2021/03/14 09:37:07;;;;;;;;;;;16.40;54.90;;;;;;4892205;29;19934;-84
2021/03/14 09:39:34;;;;;;;;;;;16.40;54.90;;;;;;4913411;29;19958;-84
2021/03/14 09:42:01;;;;;;;;;;;16.40;55.00;;;;;;4912545;29;21664;-83
2021/03/14 09:44:27;;;;;;;;;;;16.50;54.90;;;;;;4907722;29;20388;-83
2021/03/14 09:47:03;;;;;;;;;;;16.50;54.60;;;;;;4912330;29;19966;-86
2021/03/14 09:49:30;;;;;;;;;;;16.40;54.50;;;;;;4885563;29;19934;-84
2021/03/14 09:51:56;;;;;;;;;;;16.50;54.40;;;;;;4912215;29;19931;-85
2021/03/14 09:54:24;;;;;;;;;;;16.40;54.30;;;;;;4887203;29;19927;-85
2021/03/14 09:56:54;;;;;;;;;;;16.40;54.30;;;;;;4910052;29;19935;-85
2021/03/14 09:59:26;;;;;;;;;;;16.50;54.30;;;;;;4892661;29;19967;-84
2021/03/14 10:01:56;;;;;;;;;;;16.50;54.30;;;;;;4910521;29;20018;-85
2021/03/14 10:04:22;;;;;;;;;;;16.50;54.20;;;;;;4905802;29;19962;-84
2021/03/14 10:06:49;;;;;;;;;;;16.50;54.30;;;;;;4911191;29;19922;-85
2021/03/14 10:09:31;;;;;;;;;;;16.50;54.20;;;;;;4908055;29;20630;-86
2021/03/14 10:11:57;;;;;;;;;;;16.50;54.70;;;;;;4912630;29;19949;-86
2021/03/14 10:14:24;;;;;;;;;;;16.50;54.20;;;;;;4890980;29;20344;-85
2021/03/14 10:17:18;;;;;;;;;;;16.50;54.80;;;;;;4894173;29;20383;-88
2021/03/14 10:19:47;;;;;;;;;;;16.50;55.90;;;;;;4870943;29;19922;-85
2021/03/14 10:22:13;;;;;;;;;;;16.60;56.10;;;;;;4895477;29;20281;-91
2021/03/14 10:24:45;;;;;;;;;;;16.60;55.70;;;;;;4894742;29;19927;-92
2021/03/14 10:27:20;;;;;;;;;;;16.60;56.10;;;;;;4883749;29;19927;-89
2021/03/14 10:29:55;;;;;;;;;;;16.60;56.30;;;;;;4888858;29;20022;-89
2021/03/14 10:32:24;;;;;;;;;;;16.60;56.70;;;;;;4893326;29;19983;-89
2021/03/14 10:34:52;;;;;;;;;;;16.60;58.00;;;;;;4892005;29;20446;-85
2021/03/14 10:37:29;;;;;;;;;;;16.60;57.60;;;;;;4908670;29;19970;-85
2021/03/14 10:40:00;;;;;;;;;;;16.70;57.60;;;;;;4888324;29;20010;-87
2021/03/14 10:42:27;;;;;;;;;;;16.60;57.40;;;;;;4889677;29;20421;-87
2021/03/14 10:45:00;;;;;;;;;;;16.60;57.50;;;;;;4893068;29;20351;-84
2021/03/14 10:47:28;;;;;;;;;;;16.60;57.50;;;;;;4910370;29;19936;-86
2021/03/14 10:50:05;;;;;;;;;;;16.60;57.40;;;;;;4909221;29;20348;-86
2021/03/14 10:52:32;;;;;;;;;;;16.60;57.30;;;;;;4908499;29;20375;-86
2021/03/14 10:54:58;;;;;;;;;;;16.60;57.40;;;;;;4911502;29;19927;-86
2021/03/14 10:57:24;;;;;;;;;;;16.60;57.50;;;;;;4890977;29;19915;-83
2021/03/14 11:00:02;;;;;;;;;;;16.60;57.40;;;;;;4907719;29;19985;-87
2021/03/14 11:02:39;;;;;;;;;;;16.70;57.70;;;;;;4896999;29;20345;-94
2021/03/14 11:05:06;;;;;;;;;;;16.70;59.00;;;;;;4909363;29;19962;-84
2021/03/14 11:07:35;;;;;;;;;;;16.80;59.40;;;;;;4914297;29;19927;-88
2021/03/14 11:10:08;;;;;;;;;;;16.90;59.50;;;;;;4910405;29;19966;-84
2021/03/14 11:12:41;;;;;;;;;;;16.90;59.00;;;;;;4892736;29;19939;-86
2021/03/14 11:15:33;;;;;;;;;;;17.00;59.10;;;;;;4897578;29;21425;-93
2021/03/14 11:18:02;;;;;;;;;;;17.00;58.80;;;;;;4890709;29;19933;-92
2021/03/14 11:20:31;;;;;;;;;;;17.20;58.90;;;;;;4897130;29;19927;-88
2021/03/14 11:23:01;;;;;;;;;;;17.20;58.80;;;;;;4903874;29;19935;-88
2021/03/14 11:25:28;;;;;;;;;;;17.20;58.60;;;;;;4876537;29;19970;-88
2021/03/14 11:27:55;;;;;;;;;;;17.10;58.30;;;;;;4891295;29;19927;-88
2021/03/14 11:30:36;;;;;;;;;;;17.10;58.30;;;;;;4907247;29;20392;-90
2021/03/14 11:33:05;;;;;;;;;;;17.10;58.10;;;;;;4889171;29;20295;-89
2021/03/14 11:35:32;;;;;;;;;;;17.20;59.80;;;;;;4898588;29;20018;-87
2021/03/14 11:37:58;;;;;;;;;;;17.20;60.30;;;;;;4905352;29;20413;-87
2021/03/14 11:40:24;;;;;;;;;;;17.30;59.90;;;;;;4891234;29;19927;-86
2021/03/14 11:42:51;;;;;;;;;;;17.40;59.60;;;;;;4895621;29;19970;-88
2021/03/14 11:45:17;;;;;;;;;;;17.40;59.60;;;;;;4913638;29;20018;-86
2021/03/14 11:47:44;;;;;;;;;;;17.40;59.50;;;;;;4886472;29;20383;-90
2021/03/14 11:50:11;;;;;;;;;;;17.50;59.60;;;;;;4899503;29;19928;-86
2021/03/14 11:52:37;;;;;;;;;;;17.50;59.20;;;;;;4912378;29;19927;-83
2021/03/14 11:55:04;;;;;;;;;;;17.40;58.60;;;;;;4897522;29;19938;-85
2021/03/14 11:57:30;;;;;;;;;;;17.40;58.30;;;;;;4916929;29;19942;-85
2021/03/14 11:59:58;;;;;;;;;;;17.40;58.00;;;;;;4906120;29;19935;-85
2021/03/14 12:02:25;;;;;;;;;;;17.40;57.90;;;;;;4916639;29;19923;-85
2021/03/14 12:04:51;;;;;;;;;;;17.40;57.70;;;;;;4908808;29;19927;-85
2021/03/14 12:07:19;;;;;;;;;;;17.40;57.60;;;;;;4915301;29;19935;-85
2021/03/14 12:09:50;;;;;;;;;;;17.40;57.40;;;;;;4895349;29;19927;-86
2021/03/14 12:12:16;;;;;;;;;;;17.40;57.20;;;;;;4916073;29;19931;-86
2021/03/14 12:14:43;;;;;;;;;;;17.30;57.10;;;;;;4894335;29;20484;-87
2021/03/14 12:17:09;;;;;;;;;;;17.40;57.20;;;;;;4906202;29;19995;-86
2021/03/14 12:19:36;;;;;;;;;;;17.30;57.20;;;;;;4893611;29;19982;-84
2021/03/14 12:22:02;;;;;;;;;;;17.30;57.20;;;;;;4899460;29;20323;-85
2021/03/14 12:24:29;;;;;;;;;;;17.30;57.20;;;;;;4892286;29;19920;-85
2021/03/14 12:27:08;;;;;;;;;;;17.30;57.30;;;;;;4903144;29;19940;-86
2021/03/14 12:29:35;;;;;;;;;;;17.20;57.20;;;;;;4912537;29;19927;-84
2021/03/14 12:32:01;;;;;;;;;;;17.30;57.30;;;;;;4913917;29;19959;-84
2021/03/14 12:34:30;;;;;;;;;;;17.20;57.20;;;;;;4908952;29;19936;-83
2021/03/14 12:36:56;;;;;;;;;;;17.20;57.00;;;;;;4896544;29;19934;-84
2021/03/14 12:39:23;;;;;;;;;;;17.20;56.80;;;;;;4898958;29;19932;-84
2021/03/14 12:41:49;;;;;;;;;;;17.20;56.80;;;;;;4905950;29;19941;-86
2021/03/14 12:44:15;;;;;;;;;;;17.20;56.70;;;;;;4898219;29;19966;-87
2021/03/14 12:46:42;;;;;;;;;;;17.20;56.60;;;;;;4887831;29;19955;-88
2021/03/14 12:49:08;;;;;;;;;;;17.10;56.60;;;;;;4895762;29;19943;-86
2021/03/14 12:51:34;;;;;;;;;;;17.20;56.80;;;;;;4889654;29;20322;-86
2021/03/14 12:54:02;;;;;;;;;;;17.20;56.60;;;;;;4895793;29;19962;-85
2021/03/14 12:56:29;;;;;;;;;;;17.20;56.40;;;;;;4893216;29;19938;-86
2021/03/14 12:58:55;;;;;;;;;;;17.10;56.80;;;;;;4893875;29;20282;-86
2021/03/14 13:01:22;;;;;;;;;;;17.10;56.00;;;;;;4892627;29;19953;-89
2021/03/14 13:03:48;;;;;;;;;;;17.10;56.00;;;;;;4892605;29;20606;-88
2021/03/14 13:06:15;;;;;;;;;;;17.10;56.00;;;;;;4904034;29;19939;-84
2021/03/14 13:08:46;;;;;;;;;;;17.10;55.90;;;;;;4909460;29;19927;-86
2021/03/14 13:11:13;;;;;;;;;;;17.10;56.20;;;;;;4905844;29;19923;-89
2021/03/14 13:13:39;;;;;;;;;;;17.10;56.10;;;;;;4886074;29;20095;-85
2021/03/14 13:16:05;;;;;;;;;;;17.00;56.20;;;;;;4894901;29;19935;-81
2021/03/14 13:18:32;;;;;;;;;;;17.10;56.10;;;;;;4908380;29;19930;-85
2021/03/14 13:20:59;;;;;;;;;;;17.10;56.30;;;;;;4906088;29;19937;-84
2021/03/14 13:23:25;;;;;;;;;;;17.10;56.40;;;;;;4906551;29;19982;-85
2021/03/14 13:25:51;;;;;;;;;;;17.10;56.60;;;;;;4891588;29;19935;-84
2021/03/14 13:28:18;;;;;;;;;;;17.00;56.60;;;;;;4890122;29;19931;-84
2021/03/14 13:30:49;;;;;;;;;;;17.00;56.70;;;;;;4897496;29;19925;-84
2021/03/14 13:33:15;;;;;;;;;;;17.00;56.60;;;;;;4904314;29;19927;-84
2021/03/14 13:35:42;;;;;;;;;;;17.00;56.40;;;;;;4912721;29;20235;-83
2021/03/14 13:38:08;;;;;;;;;;;17.00;56.30;;;;;;4905508;29;20563;-81
2021/03/14 13:40:34;;;;;;;;;;;17.00;56.30;;;;;;4911245;29;19927;-88
2021/03/14 13:43:01;;;;;;;;;;;17.00;56.40;;;;;;4891446;29;20018;-85
2021/03/14 13:45:27;;;;;;;;;;;17.00;56.50;;;;;;4909720;29;20025;-84
2021/03/14 13:47:53;;;;;;;;;;;17.00;56.50;;;;;;4906143;29;19942;-84
2021/03/14 13:50:20;;;;;;;;;;;16.90;56.30;;;;;;4912736;29;20261;-84
2021/03/14 13:52:46;;;;;;;;;;;17.00;56.40;;;;;;4907267;29;19934;-84
2021/03/14 13:55:12;;;;;;;;;;;17.00;56.50;;;;;;4890832;29;19927;-85
2021/03/14 13:57:38;;;;;;;;;;;17.00;56.40;;;;;;4902490;29;19985;-85
2021/03/14 14:00:06;;;;;;;;;;;17.00;56.40;;;;;;4893849;29;19938;-85
2021/03/14 14:02:32;;;;;;;;;;;17.00;56.40;;;;;;4879011;29;19934;-85
2021/03/14 14:04:59;;;;;;;;;;;16.90;56.20;;;;;;4891119;29;20595;-85
2021/03/14 14:07:25;;;;;;;;;;;16.90;55.60;;;;;;4910042;29;19927;-85
2021/03/14 14:09:53;;;;;;;;;;;16.90;55.60;;;;;;4907455;29;20018;-85
2021/03/14 14:12:22;;;;;;;;;;;16.90;55.60;;;;;;4898141;29;19926;-85
2021/03/14 14:14:49;;;;;;;;;;;16.90;55.50;;;;;;4888539;29;19927;-86
2021/03/14 14:17:15;;;;;;;;;;;16.90;55.90;;;;;;4910107;29;19962;-86
2021/03/14 14:19:43;;;;;;;;;;;16.80;55.40;;;;;;4885553;29;19935;-86
2021/03/14 14:22:09;;;;;;;;;;;16.80;54.90;;;;;;4910826;29;20439;-86
2021/03/14 14:24:37;;;;;;;;;;;16.80;55.00;;;;;;4910415;29;19937;-86